createdAt,value
2022-09-12T00:01:58.315Z,13.00
2022-09-12T00:06:01.178Z,13.00
2022-09-12T00:10:04.728Z,12.90
2022-09-12T00:14:10.298Z,12.90
2022-09-12T00:18:17.727Z,12.90
2022-09-12T00:22:20.546Z,12.90
2022-09-12T00:26:23.493Z,12.80
2022-09-12T00:30:27.648Z,12.80
2022-09-12T00:34:30.353Z,12.70
2022-09-12T00:38:38.466Z,12.60
2022-09-12T00:42:41.164Z,12.60
2022-09-12T00:46:47.918Z,12.60
2022-09-12T00:50:51.382Z,12.50
2022-09-12T00:54:58.379Z,12.40
2022-09-12T00:59:07.465Z,12.40
2022-09-12T01:03:15.169Z,12.40
2022-09-12T01:07:20.592Z,12.40
2022-09-12T01:11:24.547Z,12.40
2022-09-12T01:15:27.351Z,12.30
2022-09-12T01:20:09.156Z,12.30
2022-09-12T01:24:35.509Z,12.30
2022-09-12T01:28:55.598Z,12.20
2022-09-12T01:33:29.569Z,12.20
2022-09-12T01:37:39.261Z,12.20
2022-09-12T01:41:54.477Z,12.20
2022-09-12T01:46:02.348Z,12.20
2022-09-12T01:50:09.423Z,12.10
2022-09-12T01:54:18.302Z,12.10
2022-09-12T01:58:24.029Z,12.00
2022-09-12T02:02:31.896Z,12.00
2022-09-12T02:06:41.008Z,12.00
2022-09-12T02:10:47.366Z,12.00
2022-09-12T02:14:54.109Z,11.90
2022-09-12T02:19:00.630Z,11.90
2022-09-12T02:23:08.717Z,11.90
2022-09-12T02:27:15.774Z,11.90
2022-09-12T02:31:23.853Z,11.90
2022-09-12T02:35:34.323Z,11.80
2022-09-12T02:39:41.097Z,11.80
2022-09-12T02:43:46.731Z,11.80
2022-09-12T02:47:53.931Z,11.80
2022-09-12T02:51:57.249Z,11.70
2022-09-12T02:56:01.605Z,11.80
2022-09-12T03:00:06.908Z,11.70
2022-09-12T03:04:37.793Z,11.70
2022-09-12T03:08:51.874Z,11.60
2022-09-12T03:13:07.249Z,11.60
2022-09-12T03:17:20.083Z,11.60
2022-09-12T03:21:27.746Z,11.50
2022-09-12T03:25:36.005Z,11.50
2022-09-12T03:29:42.544Z,11.40
2022-09-12T03:33:45.747Z,11.40
2022-09-12T03:37:49.657Z,11.40
2022-09-12T03:41:52.951Z,11.40
2022-09-12T03:45:57.069Z,11.40
2022-09-12T03:49:59.786Z,11.30
2022-09-12T03:54:02.529Z,11.30
2022-09-12T03:58:05.434Z,11.30
2022-09-12T04:02:12.530Z,11.20
2022-09-12T04:06:17.295Z,11.20
2022-09-12T04:10:20.129Z,11.10
2022-09-12T04:14:22.997Z,11.10
2022-09-12T04:18:27.563Z,11.10
2022-09-12T04:22:31.911Z,11.10
2022-09-12T04:26:34.621Z,11.10
2022-09-12T04:30:38.072Z,11.00
2022-09-12T04:34:42.209Z,11.00
2022-09-12T04:38:45.820Z,11.00
2022-09-12T04:42:48.619Z,11.00
2022-09-12T04:46:52.410Z,11.00
2022-09-12T04:50:56.496Z,11.00
2022-09-12T04:54:59.216Z,11.00
2022-09-12T04:59:02.791Z,11.00
2022-09-12T05:03:05.521Z,10.90
2022-09-12T05:07:09.964Z,10.90
2022-09-12T05:11:21.514Z,10.90
2022-09-12T05:15:27.053Z,10.90
2022-09-12T05:19:31.242Z,10.90
2022-09-12T05:23:35.334Z,11.00
2022-09-12T05:27:38.071Z,11.00
2022-09-12T05:31:40.846Z,11.10
2022-09-12T05:35:43.584Z,11.10
2022-09-12T05:39:48.335Z,11.20
2022-09-12T05:43:53.671Z,11.30
2022-09-12T05:47:56.383Z,11.50
2022-09-12T05:51:59.142Z,11.60
2022-09-12T05:56:08.494Z,11.80
2022-09-12T06:00:12.721Z,11.90
2022-09-12T06:04:15.823Z,12.00
2022-09-12T06:08:18.858Z,12.10
2022-09-12T06:12:22.900Z,12.20
2022-09-12T06:16:27.824Z,12.30
2022-09-12T06:20:30.595Z,12.60
2022-09-12T06:24:33.365Z,12.80
2022-09-12T06:28:39.209Z,13.00
2022-09-12T06:32:43.226Z,13.30
2022-09-12T06:36:48.036Z,13.60
2022-09-12T06:40:51.473Z,13.90
2022-09-12T06:44:55.520Z,14.10
2022-09-12T06:48:59.440Z,14.40
2022-09-12T06:53:02.135Z,14.60
2022-09-12T06:57:05.076Z,14.80
2022-09-12T07:01:11.121Z,15.00
2022-09-12T07:05:15.087Z,15.20
2022-09-12T07:09:17.893Z,15.30
2022-09-12T07:13:21.161Z,15.60
2022-09-12T07:17:25.233Z,15.70
2022-09-12T07:21:29.610Z,15.90
2022-09-12T07:25:32.445Z,16.20
2022-09-12T07:29:37.657Z,16.40
2022-09-12T07:33:42.980Z,16.70
2022-09-12T07:37:45.783Z,16.90
2022-09-12T07:41:48.552Z,17.10
2022-09-12T07:45:56.418Z,17.20
2022-09-12T07:50:00.583Z,17.50
2022-09-12T07:54:03.536Z,17.80
2022-09-12T07:58:06.253Z,18.10
2022-09-12T08:02:17.030Z,18.40
2022-09-12T08:06:24.026Z,18.60
2022-09-12T08:10:26.775Z,18.80
2022-09-12T08:14:29.739Z,19.10
2022-09-12T08:18:33.483Z,19.30
2022-09-12T08:22:37.602Z,19.60
2022-09-12T08:26:40.328Z,19.90
2022-09-12T08:30:43.081Z,20.00
2022-09-12T08:34:45.839Z,20.10
2022-09-12T08:38:51.488Z,20.20
2022-09-12T08:43:02.613Z,20.10
2022-09-12T08:47:21.144Z,20.10
2022-09-12T08:51:24.617Z,20.20
2022-09-12T08:55:34.053Z,20.40
2022-09-12T08:59:40.776Z,20.60
2022-09-12T09:04:11.390Z,20.80
2022-09-12T09:08:45.993Z,21.10
2022-09-12T09:12:57.345Z,21.00
2022-09-12T09:17:01.495Z,21.20
2022-09-12T09:21:10.277Z,21.30
2022-09-12T09:25:22.869Z,21.40
2022-09-12T09:29:30.735Z,21.40
2022-09-12T09:33:36.118Z,21.60
2022-09-12T09:37:43.225Z,21.70
2022-09-12T09:41:55.829Z,21.70
2022-09-12T09:46:06.740Z,22.10
2022-09-12T09:50:16.537Z,22.40
2022-09-12T09:54:23.846Z,22.70
2022-09-12T09:58:31.018Z,22.70
2022-09-12T10:02:35.372Z,22.70
2022-09-12T10:06:40.101Z,22.80
2022-09-12T10:10:54.981Z,23.00
2022-09-12T10:15:00.564Z,23.10
2022-09-12T10:19:05.325Z,23.00
2022-09-12T10:23:34.859Z,22.80
2022-09-12T10:27:37.866Z,22.60
2022-09-12T10:31:48.264Z,22.70
2022-09-12T10:35:54.922Z,22.70
2022-09-12T10:40:00.085Z,22.80
2022-09-12T10:44:08.208Z,23.00
2022-09-12T10:48:26.120Z,23.10
2022-09-12T10:52:30.354Z,23.30
2022-09-12T10:56:35.581Z,23.30
2022-09-12T11:00:47.901Z,23.30
2022-09-12T11:05:03.302Z,23.30
2022-09-12T11:09:13.169Z,23.30
2022-09-12T11:13:28.166Z,23.30
2022-09-12T11:17:46.885Z,23.20
2022-09-12T11:22:05.414Z,23.20
2022-09-12T11:26:20.728Z,23.20
2022-09-12T11:30:23.473Z,23.20
2022-09-12T11:34:36.460Z,23.30
2022-09-12T11:38:58.377Z,23.30
2022-09-12T11:43:08.281Z,23.40
2022-09-12T11:47:13.911Z,23.50
2022-09-12T11:51:21.404Z,23.40
2022-09-12T11:55:28.263Z,23.30
2022-09-12T11:59:37.865Z,23.20
2022-09-12T12:03:44.135Z,23.30
2022-09-12T12:07:53.152Z,23.60
2022-09-12T12:11:58.465Z,23.70
2022-09-12T12:16:07.122Z,23.70
2022-09-12T12:20:18.583Z,23.60
2022-09-12T12:24:23.056Z,23.70
2022-09-12T12:28:59.636Z,23.90
2022-09-12T12:33:28.190Z,24.10
2022-09-12T12:37:53.846Z,24.10
2022-09-12T12:41:56.591Z,24.00
2022-09-12T12:46:05.748Z,23.70
2022-09-12T12:50:23.827Z,23.80
2022-09-12T12:54:32.862Z,23.90
2022-09-12T12:58:38.668Z,23.80
2022-09-12T13:02:50.932Z,23.90
2022-09-12T13:07:05.793Z,24.00
2022-09-12T13:11:15.043Z,24.30
2022-09-12T13:15:48.887Z,24.50
2022-09-12T13:20:16.836Z,24.60
2022-09-12T13:24:18.805Z,24.70
2022-09-12T13:28:21.537Z,24.40
2022-09-12T13:32:24.949Z,24.20
2022-09-12T13:36:55.438Z,24.40
2022-09-12T13:41:18.424Z,24.50
2022-09-12T13:45:23.203Z,24.50
2022-09-12T13:49:32.905Z,24.60
2022-09-12T13:53:45.181Z,24.70
2022-09-12T13:57:58.091Z,24.70
2022-09-12T14:02:00.926Z,25.00
2022-09-12T14:06:06.191Z,25.10
2022-09-12T14:10:09.652Z,25.00
2022-09-12T14:14:21.910Z,25.00
2022-09-12T14:18:27.128Z,25.00
2022-09-12T14:22:30.440Z,24.90
2022-09-12T14:26:36.381Z,24.80
2022-09-12T14:30:40.747Z,24.80
2022-09-12T14:34:43.895Z,24.80
2022-09-12T14:38:52.532Z,24.90
2022-09-12T14:42:59.273Z,24.70
2022-09-12T14:47:16.402Z,24.90
2022-09-12T14:51:23.194Z,25.10
2022-09-12T14:55:30.462Z,25.30
2022-09-12T14:59:40.174Z,25.60
2022-09-12T15:08:01.451Z,25.70
2022-09-12T15:12:04.174Z,25.80
2022-09-12T15:16:11.618Z,26.00
2022-09-12T15:20:16.452Z,26.10
2022-09-12T15:24:19.300Z,26.20
2022-09-12T15:28:24.827Z,26.30
2022-09-12T15:32:30.235Z,26.50
2022-09-12T15:36:34.276Z,26.50
2022-09-12T15:40:39.286Z,26.60
2022-09-12T15:44:42.270Z,26.60
2022-09-12T15:48:45.124Z,26.60
2022-09-12T15:52:49.294Z,26.30
2022-09-12T15:56:52.356Z,26.10
2022-09-12T16:00:55.129Z,25.90
2022-09-12T16:04:57.897Z,25.60
2022-09-12T16:09:02.291Z,25.40
2022-09-12T16:13:05.190Z,25.20
2022-09-12T16:17:08.037Z,25.00
2022-09-12T16:21:14.952Z,24.90
2022-09-12T16:25:19.676Z,24.80
2022-09-12T16:29:22.491Z,24.60
2022-09-12T16:33:25.685Z,24.50
2022-09-12T16:37:28.777Z,24.50
2022-09-12T16:41:32.830Z,24.50
2022-09-12T16:45:35.711Z,24.40
2022-09-12T16:49:38.445Z,24.20
2022-09-12T16:53:41.185Z,23.90
2022-09-12T16:57:45.888Z,23.80
2022-09-12T17:01:48.675Z,23.60
2022-09-12T17:05:58.865Z,23.30
2022-09-12T17:10:01.574Z,23.20
2022-09-12T17:14:08.141Z,23.00
2022-09-12T17:18:11.318Z,22.80
2022-09-12T17:22:14.118Z,22.60
2022-09-12T17:26:17.478Z,22.40
2022-09-12T17:30:21.971Z,22.30
2022-09-12T17:34:24.950Z,22.10
2022-09-12T17:38:27.839Z,22.00
2022-09-12T17:42:31.496Z,21.80
2022-09-12T17:46:37.481Z,21.70
2022-09-12T17:50:41.729Z,21.50
2022-09-12T17:54:45.049Z,21.30
2022-09-12T17:58:47.977Z,21.20
2022-09-12T18:02:52.074Z,21.00
2022-09-12T18:06:54.833Z,20.90
2022-09-12T18:11:05.158Z,20.80
2022-09-12T18:15:09.309Z,20.70
2022-09-12T18:19:13.980Z,20.60
2022-09-12T18:23:16.673Z,20.50
2022-09-12T18:27:19.578Z,20.50
2022-09-12T18:31:24.557Z,20.40
2022-09-12T18:35:28.786Z,20.30
2022-09-12T18:39:34.079Z,20.20
2022-09-12T18:43:37.354Z,20.20
2022-09-12T18:47:40.132Z,20.20
2022-09-12T18:51:44.489Z,20.10
2022-09-12T18:55:47.207Z,20.10
2022-09-12T18:59:49.983Z,20.00
2022-09-12T19:03:53.416Z,19.90
2022-09-12T19:07:57.727Z,19.90
2022-09-12T19:12:00.960Z,19.90
2022-09-12T19:16:06.039Z,19.80
2022-09-12T19:20:10.347Z,19.80
2022-09-12T19:24:16.356Z,19.70
2022-09-12T19:28:19.125Z,19.70
2022-09-12T19:32:22.425Z,19.60
2022-09-12T19:36:44.219Z,19.60
2022-09-12T19:40:58.993Z,19.50
2022-09-12T19:45:01.935Z,19.50
2022-09-12T19:49:05.136Z,19.50
2022-09-12T19:53:08.568Z,19.40
2022-09-12T19:57:15.700Z,19.40
2022-09-12T20:01:20.158Z,19.40
2022-09-12T20:05:23.139Z,19.30
2022-09-12T20:09:25.846Z,19.30
2022-09-12T20:13:30.100Z,19.30
2022-09-12T20:17:32.866Z,19.20
2022-09-12T20:21:36.039Z,19.20
2022-09-12T20:25:38.922Z,19.20
2022-09-12T20:29:45.499Z,19.10
2022-09-12T20:33:51.711Z,19.10
2022-09-12T20:37:54.906Z,19.10
2022-09-12T20:41:57.584Z,19.00
2022-09-12T20:46:06.172Z,19.10
2022-09-12T20:50:09.794Z,19.10
2022-09-12T20:54:13.011Z,19.10
2022-09-12T20:58:15.734Z,19.10
2022-09-12T21:02:19.934Z,19.10
2022-09-12T21:06:23.094Z,19.00
2022-09-12T21:10:25.902Z,19.00
2022-09-12T21:14:28.592Z,19.00
2022-09-12T21:18:34.168Z,18.90
2022-09-12T21:22:36.893Z,18.90
2022-09-12T21:26:39.602Z,18.90
2022-09-12T21:30:42.582Z,18.80
2022-09-12T21:34:46.762Z,18.80
2022-09-12T21:38:49.480Z,18.90
2022-09-12T21:42:52.269Z,18.80
2022-09-12T21:46:54.969Z,18.80
2022-09-12T21:50:59.590Z,18.90
2022-09-12T21:55:04.860Z,18.90
2022-09-12T21:59:07.593Z,18.90
2022-09-12T22:03:11.372Z,18.90
2022-09-12T22:07:15.608Z,18.90
2022-09-12T22:11:19.024Z,18.90
2022-09-12T22:19:45.024Z,18.80
2022-09-12T22:24:07.102Z,18.80
2022-09-12T22:28:09.773Z,18.80
2022-09-12T22:32:13.586Z,18.70
2022-09-12T22:36:16.353Z,18.70
2022-09-12T22:40:20.609Z,18.70
2022-09-12T22:44:23.345Z,18.70
2022-09-12T22:48:26.103Z,18.70
2022-09-12T22:52:28.862Z,18.70
2022-09-12T22:56:33.244Z,18.60
2022-09-12T23:00:36.233Z,18.60
2022-09-12T23:04:39.002Z,18.60
2022-09-12T23:08:41.759Z,18.60
2022-09-12T23:12:45.854Z,18.50
2022-09-12T23:16:48.635Z,18.50
2022-09-12T23:20:58.096Z,18.50
2022-09-12T23:25:00.818Z,18.50
2022-09-12T23:29:05.625Z,18.50
2022-09-12T23:33:08.410Z,18.50
2022-09-12T23:37:11.130Z,18.60
2022-09-12T23:41:15.138Z,18.50
2022-09-12T23:45:19.247Z,18.50
2022-09-12T23:49:21.947Z,18.50
2022-09-12T23:53:25.338Z,18.50
2022-09-12T23:57:28.500Z,18.40
